Huvudsida
METAR-TAF:

METAR-TAF

Flygplatser :

Memmingens flygplats

Memmingen, Tyskland

latitud: 47-59-33N, longitud: 10-14-37E, höjd: 633 m

Aktuellt väderrapport

Denna rapport gjordes för 1 timme och 46 minuter sedan, klockan 21:50 UTC
Vind 3 kt från sydost
Temperatur 16°C
Fuktighet 94%
Tryck 1021 hPa
Sikt 10 km eller mer
Inga moln under 1 500 m eller inga cumulonimbus

METAR: EDJA 252150Z 14003KT CAVOK 16/15 Q1021

Tid: 01:36 (23:36 UTC)

Väderprognos

Denna rapport gjordes för 6 timmar och 36 minuter sedan, klockan 17:00 UTC
Prognos gäller från 25 kl. 18 UTC till 26 kl. 03 UTC
Vind 6 kt från ost
Sikt 10 km eller mer
Inga moln under 1 500 m eller inga cumulonimbus
Blir
från 25 kl. 18 UTC till 25 kl. 19 UTC
Vind 3 kt varierande vindriktning
Sannolikhet 30% :
Temporärt
från 25 kl. 23 UTC till 26 kl. 03 UTC
Sikt: 2000 m
dimbankar

TAF: EDJA 251700Z 2518/2603 09006KT CAVOK BECMG 2518/2519 VRB03KT PROB30 TEMPO 2523/2603 2000 BCFG

Aktuella väderrapporter och prognoser från 4000 flygplatser (METAR- och TAF-rapporter).

De tillgängliga stationerna syns som gula och röda prickar på kartan.

För musen över prickarna för att se namnen på stationerna.

Klicka sedan för att få väderrapporter och prognoser.

För att ändra kartan: Klicka på de gröna knapparna med ett svart kors på för att zooma in; den gröna knappen med ett streck på för att zooma ut; eller på de gröna pilarna för angränsande kartor.


METAR-TAF: